sensor_id;sensor_type;location;lat;lon;timestamp;temperature;humidity
50586;DHT22;36542;51.700;8.846;2023-05-07T00:01:53;13.50;99.90
50586;DHT22;36542;51.700;8.846;2023-05-07T00:04:18;13.40;99.90
50586;DHT22;36542;51.700;8.846;2023-05-07T00:06:44;13.40;99.90
50586;DHT22;36542;51.700;8.846;2023-05-07T00:09:10;13.40;99.90
50586;DHT22;36542;51.700;8.846;2023-05-07T00:11:36;13.40;99.90
50586;DHT22;36542;51.700;8.846;2023-05-07T00:14:01;13.30;99.90
50586;DHT22;36542;51.700;8.846;2023-05-07T00:16:27;13.30;99.90
50586;DHT22;36542;51.700;8.846;2023-05-07T00:18:52;13.30;99.90
50586;DHT22;36542;51.700;8.846;2023-05-07T00:21:18;13.30;99.90
50586;DHT22;36542;51.700;8.846;2023-05-07T00:23:44;13.30;99.90
50586;DHT22;36542;51.700;8.846;2023-05-07T00:26:09;13.20;99.90
50586;DHT22;36542;51.700;8.846;2023-05-07T00:28:35;13.20;99.90
50586;DHT22;36542;51.700;8.846;2023-05-07T00:31:00;13.30;99.90
50586;DHT22;36542;51.700;8.846;2023-05-07T00:33:26;13.20;99.90
50586;DHT22;36542;51.700;8.846;2023-05-07T00:35:52;13.20;99.90
50586;DHT22;36542;51.700;8.846;2023-05-07T00:38:19;13.20;99.90
50586;DHT22;36542;51.700;8.846;2023-05-07T00:40:44;13.20;99.90
50586;DHT22;36542;51.700;8.846;2023-05-07T00:43:10;13.20;99.90
50586;DHT22;36542;51.700;8.846;2023-05-07T00:45:36;13.10;99.90
50586;DHT22;36542;51.700;8.846;2023-05-07T00:48:02;13.10;99.90
50586;DHT22;36542;51.700;8.846;2023-05-07T00:50:28;13.10;99.90
50586;DHT22;36542;51.700;8.846;2023-05-07T00:52:54;13.10;99.90
50586;DHT22;36542;51.700;8.846;2023-05-07T00:55:22;13.10;99.90
50586;DHT22;36542;51.700;8.846;2023-05-07T00:57:47;13.10;99.90
50586;DHT22;36542;51.700;8.846;2023-05-07T01:00:13;13.00;99.90
50586;DHT22;36542;51.700;8.846;2023-05-07T01:02:40;13.00;99.90
50586;DHT22;36542;51.700;8.846;2023-05-07T01:05:07;13.00;99.90
50586;DHT22;36542;51.700;8.846;2023-05-07T01:07:34;13.00;99.90
50586;DHT22;36542;51.700;8.846;2023-05-07T01:10:01;13.00;99.90
50586;DHT22;36542;51.700;8.846;2023-05-07T01:12:29;12.90;99.90
50586;DHT22;36542;51.700;8.846;2023-05-07T01:14:55;12.80;99.90
50586;DHT22;36542;51.700;8.846;2023-05-07T01:17:21;12.90;99.90
50586;DHT22;36542;51.700;8.846;2023-05-07T01:19:46;12.90;99.90
50586;DHT22;36542;51.700;8.846;2023-05-07T01:22:15;12.90;99.90
50586;DHT22;36542;51.700;8.846;2023-05-07T01:24:42;12.80;99.90
50586;DHT22;36542;51.700;8.846;2023-05-07T01:27:08;12.80;99.90
50586;DHT22;36542;51.700;8.846;2023-05-07T01:29:33;12.70;99.90
50586;DHT22;36542;51.700;8.846;2023-05-07T01:32:00;12.80;99.90
50586;DHT22;36542;51.700;8.846;2023-05-07T01:34:28;12.80;99.90
50586;DHT22;36542;51.700;8.846;2023-05-07T01:36:56;12.70;99.90
50586;DHT22;36542;51.700;8.846;2023-05-07T01:39:27;12.70;99.90
50586;DHT22;36542;51.700;8.846;2023-05-07T01:41:55;12.70;99.90
50586;DHT22;36542;51.700;8.846;2023-05-07T01:44:21;12.70;99.90
50586;DHT22;36542;51.700;8.846;2023-05-07T01:46:47;12.70;99.90
50586;DHT22;36542;51.700;8.846;2023-05-07T01:49:14;12.70;99.90
50586;DHT22;36542;51.700;8.846;2023-05-07T01:51:40;12.70;99.90
50586;DHT22;36542;51.700;8.846;2023-05-07T01:54:05;12.60;99.90
50586;DHT22;36542;51.700;8.846;2023-05-07T01:56:31;12.60;99.90
50586;DHT22;36542;51.700;8.846;2023-05-07T01:58:57;12.60;99.90
50586;DHT22;36542;51.700;8.846;2023-05-07T02:01:22;12.60;99.90
50586;DHT22;36542;51.700;8.846;2023-05-07T02:03:48;12.60;99.90
50586;DHT22;36542;51.700;8.846;2023-05-07T02:06:14;12.50;99.90
50586;DHT22;36542;51.700;8.846;2023-05-07T02:08:39;12.50;99.90
50586;DHT22;36542;51.700;8.846;2023-05-07T02:11:05;12.50;99.90
50586;DHT22;36542;51.700;8.846;2023-05-07T02:13:32;12.40;99.90
50586;DHT22;36542;51.700;8.846;2023-05-07T02:15:58;12.40;99.90
50586;DHT22;36542;51.700;8.846;2023-05-07T02:18:23;12.40;99.90
50586;DHT22;36542;51.700;8.846;2023-05-07T02:20:49;12.40;99.90
50586;DHT22;36542;51.700;8.846;2023-05-07T02:23:14;12.30;99.90
50586;DHT22;36542;51.700;8.846;2023-05-07T02:25:40;12.30;99.90
50586;DHT22;36542;51.700;8.846;2023-05-07T02:28:05;12.30;99.90
50586;DHT22;36542;51.700;8.846;2023-05-07T02:30:31;12.20;99.90
50586;DHT22;36542;51.700;8.846;2023-05-07T02:32:57;12.20;99.90
50586;DHT22;36542;51.700;8.846;2023-05-07T02:35:24;12.10;99.90
50586;DHT22;36542;51.700;8.846;2023-05-07T02:37:50;12.10;99.90
50586;DHT22;36542;51.700;8.846;2023-05-07T02:40:16;12.00;99.90
50586;DHT22;36542;51.700;8.846;2023-05-07T02:42:41;12.00;99.90
50586;DHT22;36542;51.700;8.846;2023-05-07T02:45:07;11.90;99.90
50586;DHT22;36542;51.700;8.846;2023-05-07T02:47:33;11.90;99.90
50586;DHT22;36542;51.700;8.846;2023-05-07T02:49:58;11.90;99.90
50586;DHT22;36542;51.700;8.846;2023-05-07T02:52:24;11.90;99.90
50586;DHT22;36542;51.700;8.846;2023-05-07T02:54:49;11.90;99.90
50586;DHT22;36542;51.700;8.846;2023-05-07T02:57:15;11.90;99.90
50586;DHT22;36542;51.700;8.846;2023-05-07T02:59:41;11.90;99.90
50586;DHT22;36542;51.700;8.846;2023-05-07T03:02:06;11.90;99.90
50586;DHT22;36542;51.700;8.846;2023-05-07T03:04:32;11.90;99.90
50586;DHT22;36542;51.700;8.846;2023-05-07T03:06:57;11.90;99.90
50586;DHT22;36542;51.700;8.846;2023-05-07T03:09:22;11.80;99.90
50586;DHT22;36542;51.700;8.846;2023-05-07T03:11:48;11.80;99.90
50586;DHT22;36542;51.700;8.846;2023-05-07T03:14:13;11.80;99.90
50586;DHT22;36542;51.700;8.846;2023-05-07T03:16:39;11.80;99.90
50586;DHT22;36542;51.700;8.846;2023-05-07T03:19:05;11.80;99.90
50586;DHT22;36542;51.700;8.846;2023-05-07T03:21:31;11.80;99.90
50586;DHT22;36542;51.700;8.846;2023-05-07T03:23:59;11.80;99.90
50586;DHT22;36542;51.700;8.846;2023-05-07T03:26:24;11.70;99.90
50586;DHT22;36542;51.700;8.846;2023-05-07T03:28:50;11.70;99.90
50586;DHT22;36542;51.700;8.846;2023-05-07T03:31:16;11.70;99.90
50586;DHT22;36542;51.700;8.846;2023-05-07T03:33:52;11.70;99.90
50586;DHT22;36542;51.700;8.846;2023-05-07T03:36:18;11.70;99.90
50586;DHT22;36542;51.700;8.846;2023-05-07T03:38:43;11.60;99.90
50586;DHT22;36542;51.700;8.846;2023-05-07T03:41:09;11.60;99.90
50586;DHT22;36542;51.700;8.846;2023-05-07T03:43:34;11.50;99.90
50586;DHT22;36542;51.700;8.846;2023-05-07T03:46:00;11.50;99.90
50586;DHT22;36542;51.700;8.846;2023-05-07T03:48:26;11.40;99.90
50586;DHT22;36542;51.700;8.846;2023-05-07T03:50:51;11.40;99.90
50586;DHT22;36542;51.700;8.846;2023-05-07T03:53:17;11.40;99.90
50586;DHT22;36542;51.700;8.846;2023-05-07T03:55:42;11.40;99.90
50586;DHT22;36542;51.700;8.846;2023-05-07T03:58:08;11.40;99.90
50586;DHT22;36542;51.700;8.846;2023-05-07T04:00:33;11.50;99.90
50586;DHT22;36542;51.700;8.846;2023-05-07T04:03:03;11.50;99.90
50586;DHT22;36542;51.700;8.846;2023-05-07T04:05:30;11.50;99.90
50586;DHT22;36542;51.700;8.846;2023-05-07T04:07:55;11.50;99.90
50586;DHT22;36542;51.700;8.846;2023-05-07T04:10:21;11.50;99.90
50586;DHT22;36542;51.700;8.846;2023-05-07T04:12:46;11.50;99.90
50586;DHT22;36542;51.700;8.846;2023-05-07T04:15:12;11.60;99.90
50586;DHT22;36542;51.700;8.846;2023-05-07T04:17:37;11.60;99.90
50586;DHT22;36542;51.700;8.846;2023-05-07T04:20:04;11.60;99.90
50586;DHT22;36542;51.700;8.846;2023-05-07T04:22:29;11.50;99.90
50586;DHT22;36542;51.700;8.846;2023-05-07T04:24:55;11.60;99.90
50586;DHT22;36542;51.700;8.846;2023-05-07T04:27:21;11.60;99.90
50586;DHT22;36542;51.700;8.846;2023-05-07T04:29:47;11.50;99.90
50586;DHT22;36542;51.700;8.846;2023-05-07T04:32:12;11.50;99.90
50586;DHT22;36542;51.700;8.846;2023-05-07T04:34:38;11.50;99.90
50586;DHT22;36542;51.700;8.846;2023-05-07T04:37:04;11.50;99.90
50586;DHT22;36542;51.700;8.846;2023-05-07T04:39:29;11.50;99.90
50586;DHT22;36542;51.700;8.846;2023-05-07T04:41:55;11.50;99.90
50586;DHT22;36542;51.700;8.846;2023-05-07T04:44:20;11.50;99.90
50586;DHT22;36542;51.700;8.846;2023-05-07T04:46:46;11.50;99.90
50586;DHT22;36542;51.700;8.846;2023-05-07T04:49:11;11.50;99.90
50586;DHT22;36542;51.700;8.846;2023-05-07T04:51:37;11.50;99.90
50586;DHT22;36542;51.700;8.846;2023-05-07T04:54:03;11.50;99.90
50586;DHT22;36542;51.700;8.846;2023-05-07T04:56:29;11.50;99.90
50586;DHT22;36542;51.700;8.846;2023-05-07T04:58:57;11.50;99.90
50586;DHT22;36542;51.700;8.846;2023-05-07T05:01:23;11.50;99.90
50586;DHT22;36542;51.700;8.846;2023-05-07T05:03:48;11.50;99.90
50586;DHT22;36542;51.700;8.846;2023-05-07T05:06:13;11.50;99.90
50586;DHT22;36542;51.700;8.846;2023-05-07T05:08:39;11.60;99.90
50586;DHT22;36542;51.700;8.846;2023-05-07T05:11:05;11.60;99.90
50586;DHT22;36542;51.700;8.846;2023-05-07T05:13:30;11.60;99.90
50586;DHT22;36542;51.700;8.846;2023-05-07T05:15:56;11.60;99.90
50586;DHT22;36542;51.700;8.846;2023-05-07T05:18:21;11.70;99.90
50586;DHT22;36542;51.700;8.846;2023-05-07T05:20:47;11.60;99.90
50586;DHT22;36542;51.700;8.846;2023-05-07T05:23:12;11.60;99.90
50586;DHT22;36542;51.700;8.846;2023-05-07T05:25:37;11.60;99.90
50586;DHT22;36542;51.700;8.846;2023-05-07T05:28:04;11.60;99.90
50586;DHT22;36542;51.700;8.846;2023-05-07T05:30:30;11.70;99.90
50586;DHT22;36542;51.700;8.846;2023-05-07T05:32:55;11.70;99.90
50586;DHT22;36542;51.700;8.846;2023-05-07T05:35:21;11.70;99.90
50586;DHT22;36542;51.700;8.846;2023-05-07T05:37:46;11.70;99.90
50586;DHT22;36542;51.700;8.846;2023-05-07T05:40:12;11.70;99.90
50586;DHT22;36542;51.700;8.846;2023-05-07T05:42:38;11.80;99.90
50586;DHT22;36542;51.700;8.846;2023-05-07T05:45:04;11.80;99.90
50586;DHT22;36542;51.700;8.846;2023-05-07T05:47:29;11.80;99.90
50586;DHT22;36542;51.700;8.846;2023-05-07T05:49:55;11.80;99.90
50586;DHT22;36542;51.700;8.846;2023-05-07T05:52:21;11.90;99.90
50586;DHT22;36542;51.700;8.846;2023-05-07T05:54:49;11.90;99.90
50586;DHT22;36542;51.700;8.846;2023-05-07T05:57:14;12.00;99.90
50586;DHT22;36542;51.700;8.846;2023-05-07T05:59:40;12.00;99.90
50586;DHT22;36542;51.700;8.846;2023-05-07T06:02:06;12.00;99.90
50586;DHT22;36542;51.700;8.846;2023-05-07T06:04:32;11.90;99.90
50586;DHT22;36542;51.700;8.846;2023-05-07T06:06:57;12.00;99.90
50586;DHT22;36542;51.700;8.846;2023-05-07T06:09:23;11.90;99.90
50586;DHT22;36542;51.700;8.846;2023-05-07T06:11:48;11.90;99.90
50586;DHT22;36542;51.700;8.846;2023-05-07T06:14:14;11.90;99.90
50586;DHT22;36542;51.700;8.846;2023-05-07T06:16:39;11.90;99.90
50586;DHT22;36542;51.700;8.846;2023-05-07T06:19:05;12.00;99.90
50586;DHT22;36542;51.700;8.846;2023-05-07T06:21:30;12.10;99.90
50586;DHT22;36542;51.700;8.846;2023-05-07T06:23:56;12.10;99.90
50586;DHT22;36542;51.700;8.846;2023-05-07T06:26:22;12.00;99.90
50586;DHT22;36542;51.700;8.846;2023-05-07T06:28:47;12.00;99.90
50586;DHT22;36542;51.700;8.846;2023-05-07T06:31:18;12.00;99.90
50586;DHT22;36542;51.700;8.846;2023-05-07T06:33:46;12.10;99.90
50586;DHT22;36542;51.700;8.846;2023-05-07T06:36:12;12.10;99.90
50586;DHT22;36542;51.700;8.846;2023-05-07T06:38:37;12.10;99.90
50586;DHT22;36542;51.700;8.846;2023-05-07T06:41:03;12.10;99.90
50586;DHT22;36542;51.700;8.846;2023-05-07T06:43:28;12.20;99.90
50586;DHT22;36542;51.700;8.846;2023-05-07T06:45:53;12.30;99.90
50586;DHT22;36542;51.700;8.846;2023-05-07T06:48:19;12.30;99.90
50586;DHT22;36542;51.700;8.846;2023-05-07T06:50:45;12.20;99.90
50586;DHT22;36542;51.700;8.846;2023-05-07T06:53:10;12.10;99.90
50586;DHT22;36542;51.700;8.846;2023-05-07T06:55:36;12.10;99.90
50586;DHT22;36542;51.700;8.846;2023-05-07T06:58:03;12.20;99.90
50586;DHT22;36542;51.700;8.846;2023-05-07T07:00:29;12.20;99.90
50586;DHT22;36542;51.700;8.846;2023-05-07T07:02:55;12.20;99.90
50586;DHT22;36542;51.700;8.846;2023-05-07T07:05:20;12.10;99.90
50586;DHT22;36542;51.700;8.846;2023-05-07T07:07:46;12.10;99.90
50586;DHT22;36542;51.700;8.846;2023-05-07T07:10:23;12.10;99.90
50586;DHT22;36542;51.700;8.846;2023-05-07T07:12:49;12.20;99.90
50586;DHT22;36542;51.700;8.846;2023-05-07T07:15:16;12.20;99.90
50586;DHT22;36542;51.700;8.846;2023-05-07T07:17:42;12.10;99.90
50586;DHT22;36542;51.700;8.846;2023-05-07T07:20:08;12.20;99.90
50586;DHT22;36542;51.700;8.846;2023-05-07T07:22:33;12.30;99.90
50586;DHT22;36542;51.700;8.846;2023-05-07T07:24:59;12.30;99.90
50586;DHT22;36542;51.700;8.846;2023-05-07T07:27:24;12.30;99.90
50586;DHT22;36542;51.700;8.846;2023-05-07T07:29:50;12.40;99.90
50586;DHT22;36542;51.700;8.846;2023-05-07T07:32:16;12.50;99.90
50586;DHT22;36542;51.700;8.846;2023-05-07T07:34:41;12.60;99.90
50586;DHT22;36542;51.700;8.846;2023-05-07T07:37:07;12.80;99.90
50586;DHT22;36542;51.700;8.846;2023-05-07T07:39:33;12.90;99.90
50586;DHT22;36542;51.700;8.846;2023-05-07T07:41:58;13.00;99.90
50586;DHT22;36542;51.700;8.846;2023-05-07T07:44:24;13.00;99.90
50586;DHT22;36542;51.700;8.846;2023-05-07T07:46:50;13.10;99.90
50586;DHT22;36542;51.700;8.846;2023-05-07T07:49:16;13.20;99.90
50586;DHT22;36542;51.700;8.846;2023-05-07T07:51:41;13.20;99.90
50586;DHT22;36542;51.700;8.846;2023-05-07T07:54:07;13.30;99.90
50586;DHT22;36542;51.700;8.846;2023-05-07T07:56:33;13.50;99.90
50586;DHT22;36542;51.700;8.846;2023-05-07T07:58:59;13.50;99.90
50586;DHT22;36542;51.700;8.846;2023-05-07T08:01:25;13.50;99.90
50586;DHT22;36542;51.700;8.846;2023-05-07T08:03:51;13.20;99.90
50586;DHT22;36542;51.700;8.846;2023-05-07T08:06:16;13.20;99.90
50586;DHT22;36542;51.700;8.846;2023-05-07T08:08:42;13.40;99.90
50586;DHT22;36542;51.700;8.846;2023-05-07T08:11:07;13.60;99.90
50586;DHT22;36542;51.700;8.846;2023-05-07T08:13:33;13.60;99.90
50586;DHT22;36542;51.700;8.846;2023-05-07T08:15:58;13.50;99.90
50586;DHT22;36542;51.700;8.846;2023-05-07T08:18:25;13.50;99.90
50586;DHT22;36542;51.700;8.846;2023-05-07T08:20:50;13.60;99.90
50586;DHT22;36542;51.700;8.846;2023-05-07T08:23:16;13.80;99.90
50586;DHT22;36542;51.700;8.846;2023-05-07T08:25:41;14.10;99.90
50586;DHT22;36542;51.700;8.846;2023-05-07T08:28:10;14.50;99.90
50586;DHT22;36542;51.700;8.846;2023-05-07T08:30:35;14.50;99.90
50586;DHT22;36542;51.700;8.846;2023-05-07T08:33:01;14.50;99.90
50586;DHT22;36542;51.700;8.846;2023-05-07T08:35:26;14.30;99.90
50586;DHT22;36542;51.700;8.846;2023-05-07T08:37:53;14.00;99.90
50586;DHT22;36542;51.700;8.846;2023-05-07T08:40:18;13.80;99.90
50586;DHT22;36542;51.700;8.846;2023-05-07T08:42:44;13.80;99.90
50586;DHT22;36542;51.700;8.846;2023-05-07T08:45:10;14.10;99.90
50586;DHT22;36542;51.700;8.846;2023-05-07T08:47:44;14.50;99.90
50586;DHT22;36542;51.700;8.846;2023-05-07T08:50:12;14.80;99.90
50586;DHT22;36542;51.700;8.846;2023-05-07T08:52:39;14.80;99.90
50586;DHT22;36542;51.700;8.846;2023-05-07T08:55:06;14.50;99.90
50586;DHT22;36542;51.700;8.846;2023-05-07T08:57:32;14.70;99.90
50586;DHT22;36542;51.700;8.846;2023-05-07T08:59:58;14.60;99.90
50586;DHT22;36542;51.700;8.846;2023-05-07T09:02:23;14.50;99.90
50586;DHT22;36542;51.700;8.846;2023-05-07T09:04:49;14.80;99.90
50586;DHT22;36542;51.700;8.846;2023-05-07T09:07:14;15.30;99.90
50586;DHT22;36542;51.700;8.846;2023-05-07T09:09:40;15.50;99.90
50586;DHT22;36542;51.700;8.846;2023-05-07T09:12:06;15.30;99.90
50586;DHT22;36542;51.700;8.846;2023-05-07T09:14:31;15.40;99.90
50586;DHT22;36542;51.700;8.846;2023-05-07T09:16:57;15.50;99.90
50586;DHT22;36542;51.700;8.846;2023-05-07T09:19:26;15.10;99.90
50586;DHT22;36542;51.700;8.846;2023-05-07T09:22:03;14.90;99.90
50586;DHT22;36542;51.700;8.846;2023-05-07T09:24:30;15.00;99.90
50586;DHT22;36542;51.700;8.846;2023-05-07T09:27:01;15.20;99.90
50586;DHT22;36542;51.700;8.846;2023-05-07T09:29:27;15.40;99.90
50586;DHT22;36542;51.700;8.846;2023-05-07T09:32:03;15.60;99.90
50586;DHT22;36542;51.700;8.846;2023-05-07T09:34:30;16.20;99.90
50586;DHT22;36542;51.700;8.846;2023-05-07T09:36:56;16.40;99.90
50586;DHT22;36542;51.700;8.846;2023-05-07T09:39:23;16.50;99.90
50586;DHT22;36542;51.700;8.846;2023-05-07T09:41:49;16.50;99.90
50586;DHT22;36542;51.700;8.846;2023-05-07T09:44:16;16.40;99.90
50586;DHT22;36542;51.700;8.846;2023-05-07T09:46:43;16.50;99.90
50586;DHT22;36542;51.700;8.846;2023-05-07T09:49:18;16.70;99.90
50586;DHT22;36542;51.700;8.846;2023-05-07T09:51:48;16.80;99.90
50586;DHT22;36542;51.700;8.846;2023-05-07T09:54:15;16.90;99.90
50586;DHT22;36542;51.700;8.846;2023-05-07T09:56:40;17.00;99.90
50586;DHT22;36542;51.700;8.846;2023-05-07T09:59:08;16.60;99.90
50586;DHT22;36542;51.700;8.846;2023-05-07T10:01:36;16.70;99.90
50586;DHT22;36542;51.700;8.846;2023-05-07T10:04:03;16.70;99.90
50586;DHT22;36542;51.700;8.846;2023-05-07T10:06:30;16.80;99.90
50586;DHT22;36542;51.700;8.846;2023-05-07T10:08:56;16.80;99.90
50586;DHT22;36542;51.700;8.846;2023-05-07T10:11:22;17.00;99.90
50586;DHT22;36542;51.700;8.846;2023-05-07T10:13:48;16.90;99.90
50586;DHT22;36542;51.700;8.846;2023-05-07T10:16:14;17.10;99.90
50586;DHT22;36542;51.700;8.846;2023-05-07T10:18:40;17.30;99.90
50586;DHT22;36542;51.700;8.846;2023-05-07T10:21:16;17.10;99.90
50586;DHT22;36542;51.700;8.846;2023-05-07T10:23:44;16.90;99.90
50586;DHT22;36542;51.700;8.846;2023-05-07T10:26:10;16.80;99.90
50586;DHT22;36542;51.700;8.846;2023-05-07T10:28:43;16.60;99.90
50586;DHT22;36542;51.700;8.846;2023-05-07T10:31:42;16.30;99.90
50586;DHT22;36542;51.700;8.846;2023-05-07T10:34:15;16.40;99.90
50586;DHT22;36542;51.700;8.846;2023-05-07T10:36:42;16.10;99.90
50586;DHT22;36542;51.700;8.846;2023-05-07T10:39:08;15.80;99.90
50586;DHT22;36542;51.700;8.846;2023-05-07T10:41:33;15.60;99.90
50586;DHT22;36542;51.700;8.846;2023-05-07T10:43:59;15.60;99.90
50586;DHT22;36542;51.700;8.846;2023-05-07T10:46:27;16.00;99.90
50586;DHT22;36542;51.700;8.846;2023-05-07T10:51:29;17.20;99.90
50586;DHT22;36542;51.700;8.846;2023-05-07T10:54:19;17.20;99.90
50586;DHT22;36542;51.700;8.846;2023-05-07T10:56:44;17.40;99.90
50586;DHT22;36542;51.700;8.846;2023-05-07T11:01:59;17.10;99.90
50586;DHT22;36542;51.700;8.846;2023-05-07T11:04:25;17.70;99.90
50586;DHT22;36542;51.700;8.846;2023-05-07T11:15:12;18.20;99.90
50586;DHT22;36542;51.700;8.846;2023-05-07T11:17:58;18.20;99.90
50586;DHT22;36542;51.700;8.846;2023-05-07T11:26:03;17.90;99.90
50586;DHT22;36542;51.700;8.846;2023-05-07T11:28:30;18.20;99.90
50586;DHT22;36542;51.700;8.846;2023-05-07T11:30:57;18.70;99.90
50586;DHT22;36542;51.700;8.846;2023-05-07T11:33:23;18.40;99.90
50586;DHT22;36542;51.700;8.846;2023-05-07T11:35:51;18.10;99.90
50586;DHT22;36542;51.700;8.846;2023-05-07T11:38:18;18.20;99.90
50586;DHT22;36542;51.700;8.846;2023-05-07T11:40:56;18.00;99.90
50586;DHT22;36542;51.700;8.846;2023-05-07T11:43:22;17.60;99.90
50586;DHT22;36542;51.700;8.846;2023-05-07T11:45:49;17.50;99.90
50586;DHT22;36542;51.700;8.846;2023-05-07T11:48:15;17.50;99.90
50586;DHT22;36542;51.700;8.846;2023-05-07T11:51:02;17.40;99.90
50586;DHT22;36542;51.700;8.846;2023-05-07T11:53:35;17.30;99.90
50586;DHT22;36542;51.700;8.846;2023-05-07T11:56:10;17.20;99.90
50586;DHT22;36542;51.700;8.846;2023-05-07T11:58:35;17.40;99.90
50586;DHT22;36542;51.700;8.846;2023-05-07T12:01:01;17.50;99.90
50586;DHT22;36542;51.700;8.846;2023-05-07T12:03:27;17.60;99.90
50586;DHT22;36542;51.700;8.846;2023-05-07T12:05:52;17.80;99.90
50586;DHT22;36542;51.700;8.846;2023-05-07T12:08:19;17.90;99.90
50586;DHT22;36542;51.700;8.846;2023-05-07T12:10:47;17.70;99.90
50586;DHT22;36542;51.700;8.846;2023-05-07T12:13:24;17.70;99.90
50586;DHT22;36542;51.700;8.846;2023-05-07T12:15:54;17.70;99.90
50586;DHT22;36542;51.700;8.846;2023-05-07T12:18:20;17.70;99.90
50586;DHT22;36542;51.700;8.846;2023-05-07T12:20:47;18.00;99.90
50586;DHT22;36542;51.700;8.846;2023-05-07T12:23:13;17.90;99.90
50586;DHT22;36542;51.700;8.846;2023-05-07T12:25:40;18.10;99.90
50586;DHT22;36542;51.700;8.846;2023-05-07T12:28:07;18.10;99.90
50586;DHT22;36542;51.700;8.846;2023-05-07T12:30:39;18.20;99.90
50586;DHT22;36542;51.700;8.846;2023-05-07T12:33:05;18.40;99.90
50586;DHT22;36542;51.700;8.846;2023-05-07T12:35:35;18.50;99.90
50586;DHT22;36542;51.700;8.846;2023-05-07T12:38:01;18.60;99.90
50586;DHT22;36542;51.700;8.846;2023-05-07T12:40:49;18.60;99.90
50586;DHT22;36542;51.700;8.846;2023-05-07T12:43:28;18.70;99.90
50586;DHT22;36542;51.700;8.846;2023-05-07T12:45:56;18.50;99.90
50586;DHT22;36542;51.700;8.846;2023-05-07T12:48:22;18.30;99.90
50586;DHT22;36542;51.700;8.846;2023-05-07T12:50:53;18.40;99.90
50586;DHT22;36542;51.700;8.846;2023-05-07T12:53:21;18.50;99.90
50586;DHT22;36542;51.700;8.846;2023-05-07T12:55:48;18.40;99.90
50586;DHT22;36542;51.700;8.846;2023-05-07T12:58:16;18.30;99.90
50586;DHT22;36542;51.700;8.846;2023-05-07T13:00:43;18.30;99.90
50586;DHT22;36542;51.700;8.846;2023-05-07T13:03:09;18.30;99.90
50586;DHT22;36542;51.700;8.846;2023-05-07T13:05:34;18.30;99.90
50586;DHT22;36542;51.700;8.846;2023-05-07T13:08:00;18.40;99.90
50586;DHT22;36542;51.700;8.846;2023-05-07T13:10:27;18.10;99.90
50586;DHT22;36542;51.700;8.846;2023-05-07T13:12:52;18.00;99.90
50586;DHT22;36542;51.700;8.846;2023-05-07T13:15:18;18.00;99.90
50586;DHT22;36542;51.700;8.846;2023-05-07T13:17:44;17.90;99.90
50586;DHT22;36542;51.700;8.846;2023-05-07T13:20:10;17.90;99.90
50586;DHT22;36542;51.700;8.846;2023-05-07T13:22:36;18.20;99.90
50586;DHT22;36542;51.700;8.846;2023-05-07T13:25:02;18.20;99.90
50586;DHT22;36542;51.700;8.846;2023-05-07T13:27:27;18.10;99.90
50586;DHT22;36542;51.700;8.846;2023-05-07T13:29:56;18.20;99.90
50586;DHT22;36542;51.700;8.846;2023-05-07T13:32:21;18.00;99.90
50586;DHT22;36542;51.700;8.846;2023-05-07T13:34:47;18.10;99.90
50586;DHT22;36542;51.700;8.846;2023-05-07T13:37:12;18.10;99.90
50586;DHT22;36542;51.700;8.846;2023-05-07T13:39:38;18.20;99.90
50586;DHT22;36542;51.700;8.846;2023-05-07T13:42:03;18.00;99.90
50586;DHT22;36542;51.700;8.846;2023-05-07T13:44:28;17.90;99.90
50586;DHT22;36542;51.700;8.846;2023-05-07T13:46:54;17.80;99.90
50586;DHT22;36542;51.700;8.846;2023-05-07T13:49:19;17.90;99.90
50586;DHT22;36542;51.700;8.846;2023-05-07T13:51:45;17.80;99.90
50586;DHT22;36542;51.700;8.846;2023-05-07T13:54:10;17.60;99.90
50586;DHT22;36542;51.700;8.846;2023-05-07T13:56:37;17.80;99.90
50586;DHT22;36542;51.700;8.846;2023-05-07T13:59:02;18.10;99.90
50586;DHT22;36542;51.700;8.846;2023-05-07T14:01:28;18.20;99.90
50586;DHT22;36542;51.700;8.846;2023-05-07T14:03:53;18.40;99.90
50586;DHT22;36542;51.700;8.846;2023-05-07T14:06:19;18.70;99.90
50586;DHT22;36542;51.700;8.846;2023-05-07T14:08:44;18.50;99.90
50586;DHT22;36542;51.700;8.846;2023-05-07T14:11:10;18.30;99.90
50586;DHT22;36542;51.700;8.846;2023-05-07T14:13:36;18.30;99.90
50586;DHT22;36542;51.700;8.846;2023-05-07T14:16:01;18.30;99.90
50586;DHT22;36542;51.700;8.846;2023-05-07T14:18:27;18.10;99.90
50586;DHT22;36542;51.700;8.846;2023-05-07T14:20:54;17.80;99.90
50586;DHT22;36542;51.700;8.846;2023-05-07T14:23:19;17.70;99.90
50586;DHT22;36542;51.700;8.846;2023-05-07T14:25:47;17.80;99.90
50586;DHT22;36542;51.700;8.846;2023-05-07T14:28:13;18.00;99.90
50586;DHT22;36542;51.700;8.846;2023-05-07T14:30:38;18.50;99.90
50586;DHT22;36542;51.700;8.846;2023-05-07T14:33:04;18.80;99.90
50586;DHT22;36542;51.700;8.846;2023-05-07T14:35:29;18.70;99.90
50586;DHT22;36542;51.700;8.846;2023-05-07T14:37:55;18.40;99.90
50586;DHT22;36542;51.700;8.846;2023-05-07T14:40:20;18.50;99.90
50586;DHT22;36542;51.700;8.846;2023-05-07T14:42:46;18.40;99.90
50586;DHT22;36542;51.700;8.846;2023-05-07T14:45:11;18.20;99.90
50586;DHT22;36542;51.700;8.846;2023-05-07T14:47:38;18.20;99.90
50586;DHT22;36542;51.700;8.846;2023-05-07T14:50:03;18.20;99.90
50586;DHT22;36542;51.700;8.846;2023-05-07T14:52:29;17.80;99.90
50586;DHT22;36542;51.700;8.846;2023-05-07T14:54:54;17.70;99.90
50586;DHT22;36542;51.700;8.846;2023-05-07T14:57:20;17.60;99.90
50586;DHT22;36542;51.700;8.846;2023-05-07T14:59:45;17.70;99.90
50586;DHT22;36542;51.700;8.846;2023-05-07T15:02:12;17.40;99.90
50586;DHT22;36542;51.700;8.846;2023-05-07T15:04:38;17.20;99.90
50586;DHT22;36542;51.700;8.846;2023-05-07T15:07:05;17.00;99.90
50586;DHT22;36542;51.700;8.846;2023-05-07T15:09:31;17.10;99.90
50586;DHT22;36542;51.700;8.846;2023-05-07T15:11:56;17.20;99.90
50586;DHT22;36542;51.700;8.846;2023-05-07T15:14:22;17.30;99.90
50586;DHT22;36542;51.700;8.846;2023-05-07T15:16:50;17.20;99.90
50586;DHT22;36542;51.700;8.846;2023-05-07T15:19:16;17.10;99.90
50586;DHT22;36542;51.700;8.846;2023-05-07T15:21:42;17.00;99.90
50586;DHT22;36542;51.700;8.846;2023-05-07T15:24:07;17.00;99.90
50586;DHT22;36542;51.700;8.846;2023-05-07T15:26:33;16.70;99.90
50586;DHT22;36542;51.700;8.846;2023-05-07T15:28:58;16.80;99.90
50586;DHT22;36542;51.700;8.846;2023-05-07T15:31:24;16.80;99.90
50586;DHT22;36542;51.700;8.846;2023-05-07T15:33:50;16.70;99.90
50586;DHT22;36542;51.700;8.846;2023-05-07T15:36:17;16.60;99.90
50586;DHT22;36542;51.700;8.846;2023-05-07T15:38:43;16.50;99.90
50586;DHT22;36542;51.700;8.846;2023-05-07T15:41:08;16.50;99.90
50586;DHT22;36542;51.700;8.846;2023-05-07T15:43:44;16.50;99.90
50586;DHT22;36542;51.700;8.846;2023-05-07T15:46:10;16.60;99.90